sensor_id;sensor_type;location;lat;lon;timestamp;temperature;humidity
44894;DHT22;30625;52.206;21.030;2023-02-26T00:01:17;1.60;99.90
44894;DHT22;30625;52.206;21.030;2023-02-26T00:03:43;1.60;99.90
44894;DHT22;30625;52.206;21.030;2023-02-26T00:06:12;1.60;99.90
44894;DHT22;30625;52.206;21.030;2023-02-26T00:08:41;1.50;99.90
44894;DHT22;30625;52.206;21.030;2023-02-26T00:11:08;1.90;99.90
44894;DHT22;30625;52.206;21.030;2023-02-26T00:13:39;1.50;99.90
44894;DHT22;30625;52.206;21.030;2023-02-26T00:16:17;1.50;99.90
44894;DHT22;30625;52.206;21.030;2023-02-26T00:18:47;1.40;99.90
44894;DHT22;30625;52.206;21.030;2023-02-26T00:21:17;1.50;99.90
44894;DHT22;30625;52.206;21.030;2023-02-26T00:23:43;2.00;99.90
44894;DHT22;30625;52.206;21.030;2023-02-26T00:26:09;1.50;99.90
44894;DHT22;30625;52.206;21.030;2023-02-26T00:28:35;1.50;99.90
44894;DHT22;30625;52.206;21.030;2023-02-26T00:31:01;1.50;99.90
44894;DHT22;30625;52.206;21.030;2023-02-26T00:33:27;1.00;99.90
44894;DHT22;30625;52.206;21.030;2023-02-26T00:35:58;1.40;99.90
44894;DHT22;30625;52.206;21.030;2023-02-26T00:38:29;1.50;99.90
44894;DHT22;30625;52.206;21.030;2023-02-26T00:40:57;2.40;99.90
44894;DHT22;30625;52.206;21.030;2023-02-26T00:43:24;1.10;99.90
44894;DHT22;30625;52.206;21.030;2023-02-26T00:46:05;1.50;99.90
44894;DHT22;30625;52.206;21.030;2023-02-26T00:51:58;1.50;99.90
44894;DHT22;30625;52.206;21.030;2023-02-26T00:54:30;1.60;99.90
44894;DHT22;30625;52.206;21.030;2023-02-26T00:56:56;3.00;99.90
44894;DHT22;30625;52.206;21.030;2023-02-26T00:59:23;1.60;99.90
44894;DHT22;30625;52.206;21.030;2023-02-26T01:01:48;1.40;99.90
44894;DHT22;30625;52.206;21.030;2023-02-26T01:04:16;1.20;99.90
44894;DHT22;30625;52.206;21.030;2023-02-26T01:06:48;1.20;99.90
44894;DHT22;30625;52.206;21.030;2023-02-26T01:09:24;1.30;99.90
44894;DHT22;30625;52.206;21.030;2023-02-26T01:11:52;1.20;99.90
44894;DHT22;30625;52.206;21.030;2023-02-26T01:14:19;1.20;99.90
44894;DHT22;30625;52.206;21.030;2023-02-26T01:17:07;1.20;99.90
44894;DHT22;30625;52.206;21.030;2023-02-26T01:25:03;1.10;99.90
44894;DHT22;30625;52.206;21.030;2023-02-26T01:27:29;1.10;99.90
44894;DHT22;30625;52.206;21.030;2023-02-26T01:29:55;1.20;99.90
44894;DHT22;30625;52.206;21.030;2023-02-26T01:32:47;1.20;99.90
44894;DHT22;30625;52.206;21.030;2023-02-26T01:35:28;1.10;99.90
44894;DHT22;30625;52.206;21.030;2023-02-26T01:43:55;1.00;99.90
44894;DHT22;30625;52.206;21.030;2023-02-26T01:49:22;1.10;99.90
44894;DHT22;30625;52.206;21.030;2023-02-26T01:54:37;1.00;99.90
44894;DHT22;30625;52.206;21.030;2023-02-26T01:59:33;1.10;99.90
44894;DHT22;30625;52.206;21.030;2023-02-26T02:02:03;1.00;99.90
44894;DHT22;30625;52.206;21.030;2023-02-26T02:04:29;1.10;99.90
44894;DHT22;30625;52.206;21.030;2023-02-26T02:06:55;0.90;99.90
44894;DHT22;30625;52.206;21.030;2023-02-26T02:09:21;0.90;99.90
44894;DHT22;30625;52.206;21.030;2023-02-26T02:12:27;0.90;99.90
44894;DHT22;30625;52.206;21.030;2023-02-26T02:17:57;0.90;99.90
44894;DHT22;30625;52.206;21.030;2023-02-26T02:20:38;0.90;99.90
44894;DHT22;30625;52.206;21.030;2023-02-26T02:26:45;0.90;99.90
44894;DHT22;30625;52.206;21.030;2023-02-26T02:32:20;0.90;99.90
44894;DHT22;30625;52.206;21.030;2023-02-26T02:37:33;0.80;99.90
44894;DHT22;30625;52.206;21.030;2023-02-26T02:40:02;0.80;99.90
44894;DHT22;30625;52.206;21.030;2023-02-26T02:42:34;0.80;99.90
44894;DHT22;30625;52.206;21.030;2023-02-26T02:45:07;0.80;99.90
44894;DHT22;30625;52.206;21.030;2023-02-26T02:50:30;0.80;99.90
44894;DHT22;30625;52.206;21.030;2023-02-26T02:55:57;0.90;99.90
44894;DHT22;30625;52.206;21.030;2023-02-26T02:58:29;0.80;99.90
44894;DHT22;30625;52.206;21.030;2023-02-26T03:01:00;0.80;99.90
44894;DHT22;30625;52.206;21.030;2023-02-26T03:06:08;0.80;99.90
44894;DHT22;30625;52.206;21.030;2023-02-26T03:08:38;0.80;99.90
44894;DHT22;30625;52.206;21.030;2023-02-26T03:11:06;0.80;99.90
44894;DHT22;30625;52.206;21.030;2023-02-26T03:13:33;0.90;99.90
44894;DHT22;30625;52.206;21.030;2023-02-26T03:16:23;0.90;99.90
44894;DHT22;30625;52.206;21.030;2023-02-26T03:18:57;0.90;99.90
44894;DHT22;30625;52.206;21.030;2023-02-26T03:21:38;0.90;99.90
44894;DHT22;30625;52.206;21.030;2023-02-26T03:24:15;0.90;99.90
44894;DHT22;30625;52.206;21.030;2023-02-26T03:26:46;0.90;99.90
44894;DHT22;30625;52.206;21.030;2023-02-26T03:29:36;0.90;99.90
44894;DHT22;30625;52.206;21.030;2023-02-26T03:32:07;0.90;99.90
44894;DHT22;30625;52.206;21.030;2023-02-26T03:34:40;0.90;99.90
44894;DHT22;30625;52.206;21.030;2023-02-26T03:37:11;1.00;99.90
44894;DHT22;30625;52.206;21.030;2023-02-26T03:39:43;0.90;99.90
44894;DHT22;30625;52.206;21.030;2023-02-26T03:42:35;0.90;99.90
44894;DHT22;30625;52.206;21.030;2023-02-26T03:47:31;0.90;99.90
44894;DHT22;30625;52.206;21.030;2023-02-26T03:50:04;0.90;99.90
44894;DHT22;30625;52.206;21.030;2023-02-26T03:52:34;0.90;99.90
44894;DHT22;30625;52.206;21.030;2023-02-26T03:55:06;0.90;99.90
44894;DHT22;30625;52.206;21.030;2023-02-26T03:57:34;0.90;99.90
44894;DHT22;30625;52.206;21.030;2023-02-26T03:59:59;0.90;99.90
44894;DHT22;30625;52.206;21.030;2023-02-26T04:02:54;2.30;99.90
44894;DHT22;30625;52.206;21.030;2023-02-26T04:05:26;0.80;99.90
44894;DHT22;30625;52.206;21.030;2023-02-26T04:07:53;0.80;99.90
44894;DHT22;30625;52.206;21.030;2023-02-26T04:10:29;0.90;99.90
44894;DHT22;30625;52.206;21.030;2023-02-26T04:13:00;0.90;99.90
44894;DHT22;30625;52.206;21.030;2023-02-26T04:15:26;1.00;99.90
44894;DHT22;30625;52.206;21.030;2023-02-26T04:17:52;0.90;99.90
44894;DHT22;30625;52.206;21.030;2023-02-26T04:20:18;1.40;99.90
44894;DHT22;30625;52.206;21.030;2023-02-26T04:22:44;0.90;99.90
44894;DHT22;30625;52.206;21.030;2023-02-26T04:25:09;0.80;99.90
44894;DHT22;30625;52.206;21.030;2023-02-26T04:27:35;0.90;99.90
44894;DHT22;30625;52.206;21.030;2023-02-26T04:30:01;0.90;99.90
44894;DHT22;30625;52.206;21.030;2023-02-26T04:32:26;0.90;99.90
44894;DHT22;30625;52.206;21.030;2023-02-26T04:34:52;0.80;99.90
44894;DHT22;30625;52.206;21.030;2023-02-26T04:37:18;0.90;99.90
44894;DHT22;30625;52.206;21.030;2023-02-26T04:39:43;0.90;99.90
44894;DHT22;30625;52.206;21.030;2023-02-26T04:42:09;0.90;99.90
44894;DHT22;30625;52.206;21.030;2023-02-26T04:44:35;0.90;99.90
44894;DHT22;30625;52.206;21.030;2023-02-26T04:47:00;0.90;99.90
44894;DHT22;30625;52.206;21.030;2023-02-26T04:49:26;0.90;99.90
44894;DHT22;30625;52.206;21.030;2023-02-26T04:51:52;1.00;99.90
44894;DHT22;30625;52.206;21.030;2023-02-26T04:54:17;0.90;99.90
44894;DHT22;30625;52.206;21.030;2023-02-26T04:56:43;1.00;99.90
44894;DHT22;30625;52.206;21.030;2023-02-26T04:59:09;1.00;99.90
44894;DHT22;30625;52.206;21.030;2023-02-26T05:01:34;1.00;99.90
44894;DHT22;30625;52.206;21.030;2023-02-26T05:04:00;0.90;99.90
44894;DHT22;30625;52.206;21.030;2023-02-26T05:06:26;0.90;99.90
44894;DHT22;30625;52.206;21.030;2023-02-26T05:08:52;0.90;99.90
44894;DHT22;30625;52.206;21.030;2023-02-26T05:11:18;0.90;99.90
44894;DHT22;30625;52.206;21.030;2023-02-26T05:13:43;1.00;99.90
44894;DHT22;30625;52.206;21.030;2023-02-26T05:16:09;0.80;99.90
44894;DHT22;30625;52.206;21.030;2023-02-26T05:18:35;0.90;99.90
44894;DHT22;30625;52.206;21.030;2023-02-26T05:21:01;0.90;99.90
44894;DHT22;30625;52.206;21.030;2023-02-26T05:23:27;1.90;99.90
44894;DHT22;30625;52.206;21.030;2023-02-26T05:25:56;0.90;99.90
44894;DHT22;30625;52.206;21.030;2023-02-26T05:28:26;1.00;99.90
44894;DHT22;30625;52.206;21.030;2023-02-26T05:30:51;1.00;99.90
44894;DHT22;30625;52.206;21.030;2023-02-26T05:33:18;0.90;99.90
44894;DHT22;30625;52.206;21.030;2023-02-26T05:35:44;1.60;99.90
44894;DHT22;30625;52.206;21.030;2023-02-26T05:38:10;1.00;99.90
44894;DHT22;30625;52.206;21.030;2023-02-26T05:40:36;0.90;99.90
44894;DHT22;30625;52.206;21.030;2023-02-26T05:43:01;0.90;99.90
44894;DHT22;30625;52.206;21.030;2023-02-26T05:45:27;0.90;99.90
44894;DHT22;30625;52.206;21.030;2023-02-26T05:47:53;1.00;99.90
44894;DHT22;30625;52.206;21.030;2023-02-26T05:50:18;1.00;99.90
44894;DHT22;30625;52.206;21.030;2023-02-26T05:52:44;0.90;99.90
44894;DHT22;30625;52.206;21.030;2023-02-26T05:55:09;0.90;99.90
44894;DHT22;30625;52.206;21.030;2023-02-26T05:57:35;0.90;99.90
44894;DHT22;30625;52.206;21.030;2023-02-26T06:00:01;0.80;99.90
44894;DHT22;30625;52.206;21.030;2023-02-26T06:02:27;0.90;99.90
44894;DHT22;30625;52.206;21.030;2023-02-26T06:04:52;0.90;99.90
44894;DHT22;30625;52.206;21.030;2023-02-26T06:07:18;0.70;99.90
44894;DHT22;30625;52.206;21.030;2023-02-26T06:09:43;0.70;99.90
44894;DHT22;30625;52.206;21.030;2023-02-26T06:12:09;0.60;99.90
44894;DHT22;30625;52.206;21.030;2023-02-26T06:14:35;0.60;99.90
44894;DHT22;30625;52.206;21.030;2023-02-26T06:17:02;2.00;99.90
44894;DHT22;30625;52.206;21.030;2023-02-26T06:19:28;0.50;99.90
44894;DHT22;30625;52.206;21.030;2023-02-26T06:21:54;0.40;99.90
44894;DHT22;30625;52.206;21.030;2023-02-26T06:24:19;0.50;99.90
44894;DHT22;30625;52.206;21.030;2023-02-26T06:26:45;0.50;99.90
44894;DHT22;30625;52.206;21.030;2023-02-26T06:29:11;0.50;99.90
44894;DHT22;30625;52.206;21.030;2023-02-26T06:31:36;0.80;99.90
44894;DHT22;30625;52.206;21.030;2023-02-26T06:34:02;0.50;99.90
44894;DHT22;30625;52.206;21.030;2023-02-26T06:36:28;0.40;99.90
44894;DHT22;30625;52.206;21.030;2023-02-26T06:38:53;0.40;99.90
44894;DHT22;30625;52.206;21.030;2023-02-26T06:41:19;0.40;99.90
44894;DHT22;30625;52.206;21.030;2023-02-26T06:43:45;0.40;99.90
44894;DHT22;30625;52.206;21.030;2023-02-26T06:46:10;0.40;99.90
44894;DHT22;30625;52.206;21.030;2023-02-26T06:48:36;0.40;99.90
44894;DHT22;30625;52.206;21.030;2023-02-26T06:51:01;0.50;99.90
44894;DHT22;30625;52.206;21.030;2023-02-26T06:53:27;0.50;99.90
44894;DHT22;30625;52.206;21.030;2023-02-26T06:55:53;0.60;99.90
44894;DHT22;30625;52.206;21.030;2023-02-26T06:58:19;0.60;99.90
44894;DHT22;30625;52.206;21.030;2023-02-26T07:00:44;0.60;99.90
44894;DHT22;30625;52.206;21.030;2023-02-26T07:03:15;0.60;99.90
44894;DHT22;30625;52.206;21.030;2023-02-26T07:05:41;0.70;99.90
44894;DHT22;30625;52.206;21.030;2023-02-26T07:08:08;0.70;99.90
44894;DHT22;30625;52.206;21.030;2023-02-26T07:10:35;0.70;99.90
44894;DHT22;30625;52.206;21.030;2023-02-26T07:13:01;0.70;99.90
44894;DHT22;30625;52.206;21.030;2023-02-26T07:15:28;1.00;99.90
44894;DHT22;30625;52.206;21.030;2023-02-26T07:17:54;0.80;99.90
44894;DHT22;30625;52.206;21.030;2023-02-26T07:20:19;0.70;99.90
44894;DHT22;30625;52.206;21.030;2023-02-26T07:22:45;0.70;99.90
44894;DHT22;30625;52.206;21.030;2023-02-26T07:25:12;0.80;99.90
44894;DHT22;30625;52.206;21.030;2023-02-26T07:27:38;0.90;99.90
44894;DHT22;30625;52.206;21.030;2023-02-26T07:30:05;0.90;99.90
44894;DHT22;30625;52.206;21.030;2023-02-26T07:32:31;0.90;99.90
44894;DHT22;30625;52.206;21.030;2023-02-26T07:34:57;0.90;99.90
44894;DHT22;30625;52.206;21.030;2023-02-26T07:37:23;0.60;99.90
44894;DHT22;30625;52.206;21.030;2023-02-26T07:39:48;0.90;99.90
44894;DHT22;30625;52.206;21.030;2023-02-26T07:42:14;1.00;99.90
44894;DHT22;30625;52.206;21.030;2023-02-26T07:44:40;1.10;99.90
44894;DHT22;30625;52.206;21.030;2023-02-26T07:47:05;1.00;99.90
44894;DHT22;30625;52.206;21.030;2023-02-26T07:49:31;1.10;99.90
44894;DHT22;30625;52.206;21.030;2023-02-26T07:51:58;1.10;99.90
44894;DHT22;30625;52.206;21.030;2023-02-26T07:54:24;1.20;99.90
44894;DHT22;30625;52.206;21.030;2023-02-26T07:56:49;1.10;99.90
44894;DHT22;30625;52.206;21.030;2023-02-26T07:59:16;1.20;99.90
44894;DHT22;30625;52.206;21.030;2023-02-26T08:01:41;1.20;99.90
44894;DHT22;30625;52.206;21.030;2023-02-26T08:04:07;1.00;99.90
44894;DHT22;30625;52.206;21.030;2023-02-26T08:06:32;1.10;99.90
44894;DHT22;30625;52.206;21.030;2023-02-26T08:09:00;1.00;99.90
44894;DHT22;30625;52.206;21.030;2023-02-26T08:11:25;1.00;99.90
44894;DHT22;30625;52.206;21.030;2023-02-26T08:13:51;1.00;99.90
44894;DHT22;30625;52.206;21.030;2023-02-26T08:16:17;1.00;99.90
44894;DHT22;30625;52.206;21.030;2023-02-26T08:18:42;1.70;99.90
44894;DHT22;30625;52.206;21.030;2023-02-26T08:21:08;1.10;99.90
44894;DHT22;30625;52.206;21.030;2023-02-26T08:23:35;1.10;99.90
44894;DHT22;30625;52.206;21.030;2023-02-26T08:26:06;1.20;99.90
44894;DHT22;30625;52.206;21.030;2023-02-26T08:28:32;1.70;99.90
44894;DHT22;30625;52.206;21.030;2023-02-26T08:30:59;1.30;99.90
44894;DHT22;30625;52.206;21.030;2023-02-26T08:33:25;1.30;99.90
44894;DHT22;30625;52.206;21.030;2023-02-26T08:35:51;1.20;99.90
44894;DHT22;30625;52.206;21.030;2023-02-26T08:38:18;1.20;99.90
44894;DHT22;30625;52.206;21.030;2023-02-26T08:40:44;1.10;99.90
44894;DHT22;30625;52.206;21.030;2023-02-26T08:43:09;1.10;99.90
44894;DHT22;30625;52.206;21.030;2023-02-26T08:45:37;1.10;99.90
44894;DHT22;30625;52.206;21.030;2023-02-26T08:48:02;1.20;99.90
44894;DHT22;30625;52.206;21.030;2023-02-26T08:50:28;1.20;99.90
44894;DHT22;30625;52.206;21.030;2023-02-26T08:52:54;1.20;99.90
44894;DHT22;30625;52.206;21.030;2023-02-26T08:55:20;1.20;99.90
44894;DHT22;30625;52.206;21.030;2023-02-26T08:57:46;1.30;99.90
44894;DHT22;30625;52.206;21.030;2023-02-26T09:00:12;1.20;99.90
44894;DHT22;30625;52.206;21.030;2023-02-26T09:02:40;1.20;99.90
44894;DHT22;30625;52.206;21.030;2023-02-26T09:05:07;1.30;99.90
44894;DHT22;30625;52.206;21.030;2023-02-26T09:07:32;1.30;99.90
44894;DHT22;30625;52.206;21.030;2023-02-26T09:09:58;1.30;99.90
44894;DHT22;30625;52.206;21.030;2023-02-26T09:12:24;1.30;99.90
44894;DHT22;30625;52.206;21.030;2023-02-26T09:14:50;1.30;99.90
44894;DHT22;30625;52.206;21.030;2023-02-26T09:17:15;1.30;99.90
44894;DHT22;30625;52.206;21.030;2023-02-26T09:19:41;1.20;99.90
44894;DHT22;30625;52.206;21.030;2023-02-26T09:22:07;1.20;99.90
44894;DHT22;30625;52.206;21.030;2023-02-26T09:24:32;1.30;99.90
44894;DHT22;30625;52.206;21.030;2023-02-26T09:26:58;1.20;99.90
44894;DHT22;30625;52.206;21.030;2023-02-26T09:29:25;1.30;99.90
44894;DHT22;30625;52.206;21.030;2023-02-26T09:31:51;2.50;99.90
44894;DHT22;30625;52.206;21.030;2023-02-26T09:34:16;1.30;99.90
44894;DHT22;30625;52.206;21.030;2023-02-26T09:36:42;1.30;99.90
44894;DHT22;30625;52.206;21.030;2023-02-26T09:39:08;1.20;99.90
44894;DHT22;30625;52.206;21.030;2023-02-26T09:41:50;1.30;99.90
44894;DHT22;30625;52.206;21.030;2023-02-26T09:44:22;1.40;99.90
44894;DHT22;30625;52.206;21.030;2023-02-26T09:51:53;1.50;99.90
44894;DHT22;30625;52.206;21.030;2023-02-26T09:54:22;1.40;99.90
44894;DHT22;30625;52.206;21.030;2023-02-26T09:56:50;1.40;99.90
44894;DHT22;30625;52.206;21.030;2023-02-26T09:59:17;1.40;99.90
44894;DHT22;30625;52.206;21.030;2023-02-26T10:01:58;1.40;99.90
44894;DHT22;30625;52.206;21.030;2023-02-26T10:04:29;1.40;99.90
44894;DHT22;30625;52.206;21.030;2023-02-26T10:10:34;1.60;99.90
44894;DHT22;30625;52.206;21.030;2023-02-26T10:12:34;1.50;99.90
44894;DHT22;30625;52.206;21.030;2023-02-26T10:15:09;1.60;99.90
44894;DHT22;30625;52.206;21.030;2023-02-26T10:18:08;1.60;99.90
44894;DHT22;30625;52.206;21.030;2023-02-26T10:26:01;1.70;99.90
44894;DHT22;30625;52.206;21.030;2023-02-26T10:28:33;3.00;99.90
44894;DHT22;30625;52.206;21.030;2023-02-26T10:31:20;1.70;99.90
44894;DHT22;30625;52.206;21.030;2023-02-26T10:36:57;1.60;99.90
44894;DHT22;30625;52.206;21.030;2023-02-26T10:39:32;1.60;99.90
44894;DHT22;30625;52.206;21.030;2023-02-26T10:42:01;1.50;99.90
44894;DHT22;30625;52.206;21.030;2023-02-26T10:44:37;2.60;99.90
44894;DHT22;30625;52.206;21.030;2023-02-26T10:49:52;1.50;99.90
44894;DHT22;30625;52.206;21.030;2023-02-26T10:52:22;1.50;99.90
44894;DHT22;30625;52.206;21.030;2023-02-26T10:57:29;1.50;99.90
44894;DHT22;30625;52.206;21.030;2023-02-26T10:59:58;1.50;99.90
44894;DHT22;30625;52.206;21.030;2023-02-26T11:02:39;1.50;99.90
44894;DHT22;30625;52.206;21.030;2023-02-26T11:05:15;1.40;99.90
44894;DHT22;30625;52.206;21.030;2023-02-26T11:07:42;1.60;99.90
44894;DHT22;30625;52.206;21.030;2023-02-26T11:10:25;1.40;99.90
44894;DHT22;30625;52.206;21.030;2023-02-26T11:12:52;1.40;99.90
44894;DHT22;30625;52.206;21.030;2023-02-26T11:15:24;1.50;99.90
44894;DHT22;30625;52.206;21.030;2023-02-26T11:17:56;1.50;99.90
44894;DHT22;30625;52.206;21.030;2023-02-26T11:20:36;1.60;99.90
44894;DHT22;30625;52.206;21.030;2023-02-26T11:23:06;1.70;99.90
44894;DHT22;30625;52.206;21.030;2023-02-26T11:25:33;1.80;99.90
44894;DHT22;30625;52.206;21.030;2023-02-26T11:28:21;1.90;99.90
44894;DHT22;30625;52.206;21.030;2023-02-26T11:30:48;3.60;99.90
44894;DHT22;30625;52.206;21.030;2023-02-26T11:33:22;2.20;99.90
44894;DHT22;30625;52.206;21.030;2023-02-26T11:35:49;2.30;99.90
44894;DHT22;30625;52.206;21.030;2023-02-26T11:38:21;2.30;99.90
44894;DHT22;30625;52.206;21.030;2023-02-26T11:40:54;2.30;99.90
44894;DHT22;30625;52.206;21.030;2023-02-26T11:43:21;2.90;99.90
44894;DHT22;30625;52.206;21.030;2023-02-26T11:45:53;2.40;99.90
44894;DHT22;30625;52.206;21.030;2023-02-26T11:48:45;2.40;99.90
44894;DHT22;30625;52.206;21.030;2023-02-26T11:51:14;2.40;99.20
44894;DHT22;30625;52.206;21.030;2023-02-26T11:53:55;2.20;98.90
44894;DHT22;30625;52.206;21.030;2023-02-26T11:56:30;2.00;99.30
44894;DHT22;30625;52.206;21.030;2023-02-26T11:59:06;2.00;98.90
44894;DHT22;30625;52.206;21.030;2023-02-26T12:01:35;2.00;99.90
44894;DHT22;30625;52.206;21.030;2023-02-26T12:04:02;2.00;99.90
44894;DHT22;30625;52.206;21.030;2023-02-26T12:06:28;3.60;99.90
44894;DHT22;30625;52.206;21.030;2023-02-26T12:08:54;2.10;99.90
44894;DHT22;30625;52.206;21.030;2023-02-26T12:11:50;2.40;99.90
44894;DHT22;30625;52.206;21.030;2023-02-26T12:25:01;2.20;99.90
44894;DHT22;30625;52.206;21.030;2023-02-26T12:30:32;2.10;99.90
44894;DHT22;30625;52.206;21.030;2023-02-26T12:35:46;2.20;99.90
44894;DHT22;30625;52.206;21.030;2023-02-26T12:38:45;2.30;99.90
44894;DHT22;30625;52.206;21.030;2023-02-26T12:43:47;2.40;99.90
44894;DHT22;30625;52.206;21.030;2023-02-26T12:49:38;2.40;99.90
44894;DHT22;30625;52.206;21.030;2023-02-26T12:55:02;2.50;99.90
44894;DHT22;30625;52.206;21.030;2023-02-26T12:57:49;2.40;99.70
44894;DHT22;30625;52.206;21.030;2023-02-26T13:20:31;2.50;97.40
44894;DHT22;30625;52.206;21.030;2023-02-26T13:23:22;2.50;97.00
44894;DHT22;30625;52.206;21.030;2023-02-26T13:25:57;2.50;97.10
44894;DHT22;30625;52.206;21.030;2023-02-26T13:31:10;2.50;97.30
44894;DHT22;30625;52.206;21.030;2023-02-26T13:33:38;2.60;98.30
44894;DHT22;30625;52.206;21.030;2023-02-26T13:36:05;2.50;97.80
44894;DHT22;30625;52.206;21.030;2023-02-26T13:41:18;1.20;97.30
44894;DHT22;30625;52.206;21.030;2023-02-26T13:49:20;2.40;97.90
44894;DHT22;30625;52.206;21.030;2023-02-26T13:51:49;2.40;97.20
44894;DHT22;30625;52.206;21.030;2023-02-26T14:06:58;2.50;97.80
44894;DHT22;30625;52.206;21.030;2023-02-26T14:14:44;2.60;97.90
44894;DHT22;30625;52.206;21.030;2023-02-26T14:19:38;2.60;98.00
44894;DHT22;30625;52.206;21.030;2023-02-26T14:22:18;2.70;97.50
44894;DHT22;30625;52.206;21.030;2023-02-26T14:24:53;2.70;97.20
44894;DHT22;30625;52.206;21.030;2023-02-26T14:33:05;2.80;97.70
44894;DHT22;30625;52.206;21.030;2023-02-26T14:35:35;2.70;97.70
44894;DHT22;30625;52.206;21.030;2023-02-26T14:38:27;2.70;98.30
44894;DHT22;30625;52.206;21.030;2023-02-26T14:41:02;2.70;97.90
44894;DHT22;30625;52.206;21.030;2023-02-26T14:43:39;2.80;97.30
44894;DHT22;30625;52.206;21.030;2023-02-26T14:46:07;2.70;97.70
44894;DHT22;30625;52.206;21.030;2023-02-26T14:48:35;2.70;97.60
44894;DHT22;30625;52.206;21.030;2023-02-26T15:07:10;2.70;98.60
44894;DHT22;30625;52.206;21.030;2023-02-26T15:23:43;2.50;98.80
44894;DHT22;30625;52.206;21.030;2023-02-26T15:26:21;2.40;99.20
44894;DHT22;30625;52.206;21.030;2023-02-26T15:28:48;2.40;99.70
44894;DHT22;30625;52.206;21.030;2023-02-26T15:31:15;2.40;99.90
44894;DHT22;30625;52.206;21.030;2023-02-26T15:33:42;3.70;99.90
44894;DHT22;30625;52.206;21.030;2023-02-26T15:36:15;2.40;99.50
44894;DHT22;30625;52.206;21.030;2023-02-26T15:38:48;2.40;99.90
44894;DHT22;30625;52.206;21.030;2023-02-26T15:41:15;2.80;99.90
44894;DHT22;30625;52.206;21.030;2023-02-26T15:43:49;2.40;99.90
44894;DHT22;30625;52.206;21.030;2023-02-26T15:46:16;2.40;99.90
44894;DHT22;30625;52.206;21.030;2023-02-26T15:48:42;2.80;99.90
44894;DHT22;30625;52.206;21.030;2023-02-26T15:51:11;2.20;99.90
44894;DHT22;30625;52.206;21.030;2023-02-26T15:53:46;2.20;99.90
44894;DHT22;30625;52.206;21.030;2023-02-26T15:56:23;2.10;99.90
44894;DHT22;30625;52.206;21.030;2023-02-26T15:59:26;2.10;99.90
44894;DHT22;30625;52.206;21.030;2023-02-26T16:01:53;2.10;99.90
44894;DHT22;30625;52.206;21.030;2023-02-26T16:04:20;2.10;99.90
44894;DHT22;30625;52.206;21.030;2023-02-26T16:06:49;2.10;99.90
44894;DHT22;30625;52.206;21.030;2023-02-26T16:09:29;2.30;99.90
44894;DHT22;30625;52.206;21.030;2023-02-26T16:11:57;2.20;99.90
44894;DHT22;30625;52.206;21.030;2023-02-26T16:14:28;2.10;99.90
44894;DHT22;30625;52.206;21.030;2023-02-26T16:16:56;2.10;99.90
44894;DHT22;30625;52.206;21.030;2023-02-26T16:21:58;2.10;99.90
44894;DHT22;30625;52.206;21.030;2023-02-26T16:24:27;2.10;99.90
44894;DHT22;30625;52.206;21.030;2023-02-26T16:26:56;2.10;99.90
44894;DHT22;30625;52.206;21.030;2023-02-26T16:29:27;3.80;99.90
44894;DHT22;30625;52.206;21.030;2023-02-26T16:31:56;2.00;99.90
44894;DHT22;30625;52.206;21.030;2023-02-26T16:34:31;2.00;99.90
44894;DHT22;30625;52.206;21.030;2023-02-26T16:37:53;2.10;99.90
44894;DHT22;30625;52.206;21.030;2023-02-26T16:47:48;2.10;99.90
44894;DHT22;30625;52.206;21.030;2023-02-26T16:50:29;2.10;99.90
44894;DHT22;30625;52.206;21.030;2023-02-26T16:53:18;2.10;99.90
44894;DHT22;30625;52.206;21.030;2023-02-26T16:55:54;2.10;99.90
44894;DHT22;30625;52.206;21.030;2023-02-26T16:58:26;2.00;99.90
44894;DHT22;30625;52.206;21.030;2023-02-26T17:00:59;2.00;99.90
44894;DHT22;30625;52.206;21.030;2023-02-26T17:03:28;1.90;99.90
44894;DHT22;30625;52.206;21.030;2023-02-26T17:06:01;1.90;99.90
44894;DHT22;30625;52.206;21.030;2023-02-26T17:08:40;1.90;99.90
44894;DHT22;30625;52.206;21.030;2023-02-26T17:11:08;1.90;99.90
44894;DHT22;30625;52.206;21.030;2023-02-26T17:13:35;4.00;99.90
44894;DHT22;30625;52.206;21.030;2023-02-26T17:16:05;2.00;99.90
44894;DHT22;30625;52.206;21.030;2023-02-26T17:18:32;2.10;99.90
44894;DHT22;30625;52.206;21.030;2023-02-26T17:20:58;2.00;99.90
44894;DHT22;30625;52.206;21.030;2023-02-26T17:23:29;2.10;99.90
44894;DHT22;30625;52.206;21.030;2023-02-26T17:25:55;2.20;99.90
44894;DHT22;30625;52.206;21.030;2023-02-26T17:28:42;2.20;99.90
44894;DHT22;30625;52.206;21.030;2023-02-26T17:31:08;4.30;99.90
44894;DHT22;30625;52.206;21.030;2023-02-26T17:33:37;3.00;99.90
44894;DHT22;30625;52.206;21.030;2023-02-26T17:36:04;2.10;99.90
44894;DHT22;30625;52.206;21.030;2023-02-26T17:38:31;2.20;99.90
44894;DHT22;30625;52.206;21.030;2023-02-26T17:40:58;2.10;99.90
44894;DHT22;30625;52.206;21.030;2023-02-26T17:43:25;2.20;99.90
44894;DHT22;30625;52.206;21.030;2023-02-26T17:45:51;2.20;99.90
44894;DHT22;30625;52.206;21.030;2023-02-26T17:48:17;2.10;99.90
44894;DHT22;30625;52.206;21.030;2023-02-26T17:50:51;2.10;99.90
44894;DHT22;30625;52.206;21.030;2023-02-26T17:53:19;2.10;99.90
44894;DHT22;30625;52.206;21.030;2023-02-26T17:55:47;2.20;99.90
44894;DHT22;30625;52.206;21.030;2023-02-26T17:58:36;2.30;99.90
44894;DHT22;30625;52.206;21.030;2023-02-26T18:01:01;2.70;99.90
44894;DHT22;30625;52.206;21.030;2023-02-26T18:03:28;2.30;99.90
44894;DHT22;30625;52.206;21.030;2023-02-26T18:05:55;2.20;99.90
44894;DHT22;30625;52.206;21.030;2023-02-26T18:08:23;2.30;99.90
44894;DHT22;30625;52.206;21.030;2023-02-26T18:10:50;2.20;99.90
44894;DHT22;30625;52.206;21.030;2023-02-26T18:13:16;2.20;99.90
44894;DHT22;30625;52.206;21.030;2023-02-26T18:15:42;2.10;99.90
44894;DHT22;30625;52.206;21.030;2023-02-26T18:18:12;2.10;99.90
44894;DHT22;30625;52.206;21.030;2023-02-26T18:20:38;2.10;99.90
44894;DHT22;30625;52.206;21.030;2023-02-26T18:23:08;3.70;99.90
44894;DHT22;30625;52.206;21.030;2023-02-26T18:25:41;2.10;99.90
44894;DHT22;30625;52.206;21.030;2023-02-26T18:28:34;2.10;99.90
44894;DHT22;30625;52.206;21.030;2023-02-26T18:30:59;2.20;99.90
44894;DHT22;30625;52.206;21.030;2023-02-26T18:33:26;2.10;99.90
44894;DHT22;30625;52.206;21.030;2023-02-26T18:35:54;2.10;99.90
44894;DHT22;30625;52.206;21.030;2023-02-26T18:38:26;2.10;99.90
44894;DHT22;30625;52.206;21.030;2023-02-26T18:40:52;2.40;99.90
44894;DHT22;30625;52.206;21.030;2023-02-26T18:43:19;2.10;99.90
44894;DHT22;30625;52.206;21.030;2023-02-26T18:45:47;2.10;99.90
44894;DHT22;30625;52.206;21.030;2023-02-26T18:48:15;2.20;99.90
44894;DHT22;30625;52.206;21.030;2023-02-26T18:50:42;2.20;99.90
44894;DHT22;30625;52.206;21.030;2023-02-26T18:53:08;2.10;99.90
44894;DHT22;30625;52.206;21.030;2023-02-26T18:55:34;2.10;99.90
44894;DHT22;30625;52.206;21.030;2023-02-26T18:58:00;2.10;99.90